sensor_id;sensor_type;location;lat;lon;timestamp;P1;durP1;ratioP1;P2;durP2;ratioP2
48993;SDS011;34804;49.214;12.276;2022-12-18T00:01:25;64.40;;;22.53;;
48993;SDS011;34804;49.214;12.276;2022-12-18T00:03:54;74.73;;;25.33;;
48993;SDS011;34804;49.214;12.276;2022-12-18T00:06:22;71.37;;;26.20;;
48993;SDS011;34804;49.214;12.276;2022-12-18T00:08:49;62.40;;;24.27;;
48993;SDS011;34804;49.214;12.276;2022-12-18T00:11:18;79.23;;;26.97;;
48993;SDS011;34804;49.214;12.276;2022-12-18T00:13:46;64.97;;;26.20;;
48993;SDS011;34804;49.214;12.276;2022-12-18T00:16:18;62.37;;;23.47;;
48993;SDS011;34804;49.214;12.276;2022-12-18T00:18:48;61.80;;;23.10;;
48993;SDS011;34804;49.214;12.276;2022-12-18T00:21:16;63.50;;;25.10;;
48993;SDS011;34804;49.214;12.276;2022-12-18T00:23:43;79.63;;;25.57;;
48993;SDS011;34804;49.214;12.276;2022-12-18T00:26:12;67.83;;;23.47;;
48993;SDS011;34804;49.214;12.276;2022-12-18T00:28:42;75.90;;;24.50;;
48993;SDS011;34804;49.214;12.276;2022-12-18T00:31:10;72.07;;;24.50;;
48993;SDS011;34804;49.214;12.276;2022-12-18T00:33:39;64.07;;;23.70;;
48993;SDS011;34804;49.214;12.276;2022-12-18T00:36:09;67.60;;;23.10;;
48993;SDS011;34804;49.214;12.276;2022-12-18T00:38:38;70.80;;;21.40;;
48993;SDS011;34804;49.214;12.276;2022-12-18T00:41:06;64.37;;;21.67;;
48993;SDS011;34804;49.214;12.276;2022-12-18T00:43:36;59.57;;;21.77;;
48993;SDS011;34804;49.214;12.276;2022-12-18T00:46:04;57.53;;;22.13;;
48993;SDS011;34804;49.214;12.276;2022-12-18T00:48:32;55.10;;;19.70;;
48993;SDS011;34804;49.214;12.276;2022-12-18T00:50:59;69.20;;;21.10;;
48993;SDS011;34804;49.214;12.276;2022-12-18T00:53:25;60.83;;;21.37;;
48993;SDS011;34804;49.214;12.276;2022-12-18T00:55:52;66.90;;;22.07;;
48993;SDS011;34804;49.214;12.276;2022-12-18T00:58:19;59.77;;;20.73;;
48993;SDS011;34804;49.214;12.276;2022-12-18T01:00:46;62.73;;;20.20;;
48993;SDS011;34804;49.214;12.276;2022-12-18T01:03:13;57.33;;;18.20;;
48993;SDS011;34804;49.214;12.276;2022-12-18T01:05:40;54.37;;;18.13;;
48993;SDS011;34804;49.214;12.276;2022-12-18T01:08:08;55.23;;;20.23;;
48993;SDS011;34804;49.214;12.276;2022-12-18T01:10:35;58.10;;;19.00;;
48993;SDS011;34804;49.214;12.276;2022-12-18T01:13:02;45.30;;;17.20;;
48993;SDS011;34804;49.214;12.276;2022-12-18T01:15:29;51.97;;;17.53;;
48993;SDS011;34804;49.214;12.276;2022-12-18T01:17:56;50.87;;;17.67;;
48993;SDS011;34804;49.214;12.276;2022-12-18T01:20:23;53.57;;;16.90;;
48993;SDS011;34804;49.214;12.276;2022-12-18T01:22:49;47.60;;;16.53;;
48993;SDS011;34804;49.214;12.276;2022-12-18T01:25:16;64.90;;;18.47;;
48993;SDS011;34804;49.214;12.276;2022-12-18T01:27:43;56.00;;;18.87;;
48993;SDS011;34804;49.214;12.276;2022-12-18T01:30:10;54.57;;;17.17;;
48993;SDS011;34804;49.214;12.276;2022-12-18T01:32:37;49.13;;;17.23;;
48993;SDS011;34804;49.214;12.276;2022-12-18T01:35:04;57.60;;;18.47;;
48993;SDS011;34804;49.214;12.276;2022-12-18T01:37:31;54.03;;;18.50;;
48993;SDS011;34804;49.214;12.276;2022-12-18T01:39:58;52.77;;;17.83;;
48993;SDS011;34804;49.214;12.276;2022-12-18T01:42:25;49.07;;;17.07;;
48993;SDS011;34804;49.214;12.276;2022-12-18T01:47:48;49.40;;;17.37;;
48993;SDS011;34804;49.214;12.276;2022-12-18T01:52:55;55.13;;;17.52;;
48993;SDS011;34804;49.214;12.276;2022-12-18T01:55:26;59.23;;;18.03;;
48993;SDS011;34804;49.214;12.276;2022-12-18T01:57:56;49.23;;;16.77;;
48993;SDS011;34804;49.214;12.276;2022-12-18T02:00:25;63.20;;;18.13;;
48993;SDS011;34804;49.214;12.276;2022-12-18T02:02:54;51.50;;;19.10;;
48993;SDS011;34804;49.214;12.276;2022-12-18T02:05:29;55.43;;;17.97;;
48993;SDS011;34804;49.214;12.276;2022-12-18T02:11:07;59.53;;;18.57;;
48993;SDS011;34804;49.214;12.276;2022-12-18T02:16:09;56.07;;;19.50;;
48993;SDS011;34804;49.214;12.276;2022-12-18T02:18:46;50.60;;;17.57;;
48993;SDS011;34804;49.214;12.276;2022-12-18T02:24:11;42.70;;;15.87;;
48993;SDS011;34804;49.214;12.276;2022-12-18T02:26:50;48.47;;;15.73;;
48993;SDS011;34804;49.214;12.276;2022-12-18T02:29:21;40.97;;;15.10;;
48993;SDS011;34804;49.214;12.276;2022-12-18T02:31:56;41.43;;;15.27;;
48993;SDS011;34804;49.214;12.276;2022-12-18T02:34:26;38.57;;;15.00;;
48993;SDS011;34804;49.214;12.276;2022-12-18T02:36:57;37.85;;;14.20;;
48993;SDS011;34804;49.214;12.276;2022-12-18T02:39:27;38.13;;;13.87;;
48993;SDS011;34804;49.214;12.276;2022-12-18T02:41:57;42.50;;;15.27;;
48993;SDS011;34804;49.214;12.276;2022-12-18T02:44:25;34.73;;;13.80;;
48993;SDS011;34804;49.214;12.276;2022-12-18T02:46:53;43.57;;;15.10;;
48993;SDS011;34804;49.214;12.276;2022-12-18T02:52:02;42.17;;;15.10;;
48993;SDS011;34804;49.214;12.276;2022-12-18T03:00:04;54.97;;;17.70;;
48993;SDS011;34804;49.214;12.276;2022-12-18T03:02:57;40.23;;;15.20;;
48993;SDS011;34804;49.214;12.276;2022-12-18T03:08:23;48.87;;;17.50;;
48993;SDS011;34804;49.214;12.276;2022-12-18T03:11:01;50.17;;;16.53;;
48993;SDS011;34804;49.214;12.276;2022-12-18T03:13:46;47.83;;;15.73;;
48993;SDS011;34804;49.214;12.276;2022-12-18T03:16:21;45.70;;;15.03;;
48993;SDS011;34804;49.214;12.276;2022-12-18T03:18:54;47.57;;;15.93;;
48993;SDS011;34804;49.214;12.276;2022-12-18T03:21:26;46.77;;;15.90;;
48993;SDS011;34804;49.214;12.276;2022-12-18T03:23:58;49.53;;;16.33;;
48993;SDS011;34804;49.214;12.276;2022-12-18T03:26:25;46.67;;;17.00;;
48993;SDS011;34804;49.214;12.276;2022-12-18T03:28:56;45.83;;;15.10;;
48993;SDS011;34804;49.214;12.276;2022-12-18T03:31:35;45.20;;;15.43;;
48993;SDS011;34804;49.214;12.276;2022-12-18T03:34:09;39.93;;;15.20;;
48993;SDS011;34804;49.214;12.276;2022-12-18T03:36:39;41.07;;;15.17;;
48993;SDS011;34804;49.214;12.276;2022-12-18T03:39:06;36.23;;;14.70;;
48993;SDS011;34804;49.214;12.276;2022-12-18T03:41:34;39.17;;;15.03;;
48993;SDS011;34804;49.214;12.276;2022-12-18T03:49:25;40.00;;;16.02;;
48993;SDS011;34804;49.214;12.276;2022-12-18T03:52:17;45.58;;;15.32;;
48993;SDS011;34804;49.214;12.276;2022-12-18T03:54:51;36.80;;;15.17;;
48993;SDS011;34804;49.214;12.276;2022-12-18T03:57:21;40.23;;;15.67;;
48993;SDS011;34804;49.214;12.276;2022-12-18T03:59:52;43.27;;;14.73;;
48993;SDS011;34804;49.214;12.276;2022-12-18T04:02:22;38.23;;;15.17;;
48993;SDS011;34804;49.214;12.276;2022-12-18T04:04:55;34.63;;;14.87;;
48993;SDS011;34804;49.214;12.276;2022-12-18T04:07:26;42.83;;;15.37;;
48993;SDS011;34804;49.214;12.276;2022-12-18T04:09:54;40.77;;;14.47;;
48993;SDS011;34804;49.214;12.276;2022-12-18T04:12:24;38.30;;;14.60;;
48993;SDS011;34804;49.214;12.276;2022-12-18T04:14:54;41.73;;;15.53;;
48993;SDS011;34804;49.214;12.276;2022-12-18T04:17:21;40.67;;;14.60;;
48993;SDS011;34804;49.214;12.276;2022-12-18T04:19:48;40.33;;;14.67;;
48993;SDS011;34804;49.214;12.276;2022-12-18T04:22:15;41.63;;;15.10;;
48993;SDS011;34804;49.214;12.276;2022-12-18T04:24:42;45.10;;;16.80;;
48993;SDS011;34804;49.214;12.276;2022-12-18T04:27:09;45.50;;;13.93;;
48993;SDS011;34804;49.214;12.276;2022-12-18T04:29:36;38.33;;;15.23;;
48993;SDS011;34804;49.214;12.276;2022-12-18T04:32:02;41.27;;;15.77;;
48993;SDS011;34804;49.214;12.276;2022-12-18T04:34:30;40.83;;;15.13;;
48993;SDS011;34804;49.214;12.276;2022-12-18T04:36:56;41.90;;;15.40;;
48993;SDS011;34804;49.214;12.276;2022-12-18T04:39:23;39.90;;;14.50;;
48993;SDS011;34804;49.214;12.276;2022-12-18T04:41:50;39.57;;;14.10;;
48993;SDS011;34804;49.214;12.276;2022-12-18T04:44:17;39.60;;;13.73;;
48993;SDS011;34804;49.214;12.276;2022-12-18T04:46:44;40.53;;;14.50;;
48993;SDS011;34804;49.214;12.276;2022-12-18T04:49:11;43.83;;;15.07;;
48993;SDS011;34804;49.214;12.276;2022-12-18T04:51:38;35.77;;;13.77;;
48993;SDS011;34804;49.214;12.276;2022-12-18T04:54:05;37.60;;;14.77;;
48993;SDS011;34804;49.214;12.276;2022-12-18T04:56:32;47.37;;;16.50;;
48993;SDS011;34804;49.214;12.276;2022-12-18T04:58:58;50.07;;;17.47;;
48993;SDS011;34804;49.214;12.276;2022-12-18T05:01:25;43.30;;;15.33;;
48993;SDS011;34804;49.214;12.276;2022-12-18T05:04:00;36.07;;;14.27;;
48993;SDS011;34804;49.214;12.276;2022-12-18T05:06:27;38.53;;;14.03;;
48993;SDS011;34804;49.214;12.276;2022-12-18T05:08:54;36.67;;;14.00;;
48993;SDS011;34804;49.214;12.276;2022-12-18T05:11:21;42.10;;;14.00;;
48993;SDS011;34804;49.214;12.276;2022-12-18T05:13:48;37.77;;;14.53;;
48993;SDS011;34804;49.214;12.276;2022-12-18T05:16:15;35.83;;;13.37;;
48993;SDS011;34804;49.214;12.276;2022-12-18T05:18:42;39.97;;;14.30;;
48993;SDS011;34804;49.214;12.276;2022-12-18T05:21:09;42.60;;;14.43;;
48993;SDS011;34804;49.214;12.276;2022-12-18T05:23:36;44.27;;;15.47;;
48993;SDS011;34804;49.214;12.276;2022-12-18T05:26:04;41.37;;;15.33;;
48993;SDS011;34804;49.214;12.276;2022-12-18T05:28:32;41.53;;;13.67;;
48993;SDS011;34804;49.214;12.276;2022-12-18T05:31:01;39.03;;;14.13;;
48993;SDS011;34804;49.214;12.276;2022-12-18T05:33:32;38.37;;;14.43;;
48993;SDS011;34804;49.214;12.276;2022-12-18T05:36:01;40.07;;;13.57;;
48993;SDS011;34804;49.214;12.276;2022-12-18T05:38:29;40.77;;;14.03;;
48993;SDS011;34804;49.214;12.276;2022-12-18T05:40:58;39.60;;;14.40;;
48993;SDS011;34804;49.214;12.276;2022-12-18T05:43:25;35.57;;;13.97;;
48993;SDS011;34804;49.214;12.276;2022-12-18T05:45:52;39.33;;;13.67;;
48993;SDS011;34804;49.214;12.276;2022-12-18T05:48:20;35.67;;;13.07;;
48993;SDS011;34804;49.214;12.276;2022-12-18T05:50:48;37.90;;;12.20;;
48993;SDS011;34804;49.214;12.276;2022-12-18T05:53:17;32.47;;;12.60;;
48993;SDS011;34804;49.214;12.276;2022-12-18T05:55:45;34.73;;;13.50;;
48993;SDS011;34804;49.214;12.276;2022-12-18T05:58:13;35.37;;;12.77;;
48993;SDS011;34804;49.214;12.276;2022-12-18T06:00:41;35.77;;;12.17;;
48993;SDS011;34804;49.214;12.276;2022-12-18T06:03:10;35.77;;;12.60;;
48993;SDS011;34804;49.214;12.276;2022-12-18T06:05:39;31.23;;;11.77;;
48993;SDS011;34804;49.214;12.276;2022-12-18T06:08:11;31.53;;;12.10;;
48993;SDS011;34804;49.214;12.276;2022-12-18T06:10:39;29.27;;;11.23;;
48993;SDS011;34804;49.214;12.276;2022-12-18T06:13:06;28.43;;;10.90;;
48993;SDS011;34804;49.214;12.276;2022-12-18T06:15:36;29.20;;;10.87;;
48993;SDS011;34804;49.214;12.276;2022-12-18T06:18:03;31.63;;;11.07;;
48993;SDS011;34804;49.214;12.276;2022-12-18T06:20:30;30.80;;;11.57;;
48993;SDS011;34804;49.214;12.276;2022-12-18T06:22:59;31.40;;;11.33;;
48993;SDS011;34804;49.214;12.276;2022-12-18T06:25:26;33.57;;;10.97;;
48993;SDS011;34804;49.214;12.276;2022-12-18T06:27:53;33.10;;;11.47;;
48993;SDS011;34804;49.214;12.276;2022-12-18T06:30:20;33.30;;;10.83;;
48993;SDS011;34804;49.214;12.276;2022-12-18T06:32:47;31.93;;;11.37;;
48993;SDS011;34804;49.214;12.276;2022-12-18T06:35:22;28.10;;;11.80;;
48993;SDS011;34804;49.214;12.276;2022-12-18T06:37:49;30.60;;;11.03;;
48993;SDS011;34804;49.214;12.276;2022-12-18T06:40:16;33.93;;;11.53;;
48993;SDS011;34804;49.214;12.276;2022-12-18T06:42:42;30.03;;;11.37;;
48993;SDS011;34804;49.214;12.276;2022-12-18T06:45:09;29.70;;;11.90;;
48993;SDS011;34804;49.214;12.276;2022-12-18T06:47:37;26.90;;;11.07;;
48993;SDS011;34804;49.214;12.276;2022-12-18T06:50:04;33.67;;;11.93;;
48993;SDS011;34804;49.214;12.276;2022-12-18T06:52:32;28.77;;;10.50;;
48993;SDS011;34804;49.214;12.276;2022-12-18T06:54:59;32.13;;;10.93;;
48993;SDS011;34804;49.214;12.276;2022-12-18T06:57:27;32.67;;;10.63;;
48993;SDS011;34804;49.214;12.276;2022-12-18T06:59:54;28.77;;;10.13;;
48993;SDS011;34804;49.214;12.276;2022-12-18T07:02:21;33.77;;;11.80;;
48993;SDS011;34804;49.214;12.276;2022-12-18T07:04:47;34.57;;;11.50;;
48993;SDS011;34804;49.214;12.276;2022-12-18T07:07:14;33.80;;;12.33;;
48993;SDS011;34804;49.214;12.276;2022-12-18T07:09:41;32.73;;;11.63;;
48993;SDS011;34804;49.214;12.276;2022-12-18T07:12:08;28.60;;;11.17;;
48993;SDS011;34804;49.214;12.276;2022-12-18T07:14:34;32.80;;;11.87;;
48993;SDS011;34804;49.214;12.276;2022-12-18T07:17:01;34.20;;;12.47;;
48993;SDS011;34804;49.214;12.276;2022-12-18T07:19:29;38.07;;;13.07;;
48993;SDS011;34804;49.214;12.276;2022-12-18T07:21:56;35.33;;;12.50;;
48993;SDS011;34804;49.214;12.276;2022-12-18T07:24:23;33.40;;;11.87;;
48993;SDS011;34804;49.214;12.276;2022-12-18T07:26:49;36.07;;;13.20;;
48993;SDS011;34804;49.214;12.276;2022-12-18T07:29:16;38.73;;;12.50;;
48993;SDS011;34804;49.214;12.276;2022-12-18T07:31:43;38.93;;;13.43;;
48993;SDS011;34804;49.214;12.276;2022-12-18T07:34:14;40.97;;;14.27;;
48993;SDS011;34804;49.214;12.276;2022-12-18T07:36:41;37.73;;;13.63;;
48993;SDS011;34804;49.214;12.276;2022-12-18T07:39:10;37.67;;;13.77;;
48993;SDS011;34804;49.214;12.276;2022-12-18T07:41:37;44.10;;;12.03;;
48993;SDS011;34804;49.214;12.276;2022-12-18T07:44:12;34.83;;;11.83;;
48993;SDS011;34804;49.214;12.276;2022-12-18T07:46:38;38.83;;;12.90;;
48993;SDS011;34804;49.214;12.276;2022-12-18T07:49:05;36.53;;;13.10;;
48993;SDS011;34804;49.214;12.276;2022-12-18T07:51:32;36.43;;;12.77;;
48993;SDS011;34804;49.214;12.276;2022-12-18T07:53:59;31.87;;;12.27;;
48993;SDS011;34804;49.214;12.276;2022-12-18T07:56:26;35.80;;;12.70;;
48993;SDS011;34804;49.214;12.276;2022-12-18T07:58:55;34.13;;;13.17;;
48993;SDS011;34804;49.214;12.276;2022-12-18T08:01:23;35.40;;;12.70;;
48993;SDS011;34804;49.214;12.276;2022-12-18T08:03:50;33.60;;;12.70;;
48993;SDS011;34804;49.214;12.276;2022-12-18T08:06:18;31.87;;;11.60;;
48993;SDS011;34804;49.214;12.276;2022-12-18T08:08:50;31.90;;;12.60;;
48993;SDS011;34804;49.214;12.276;2022-12-18T08:11:21;37.07;;;12.47;;
48993;SDS011;34804;49.214;12.276;2022-12-18T08:13:48;34.90;;;12.10;;
48993;SDS011;34804;49.214;12.276;2022-12-18T08:16:15;31.67;;;11.53;;
48993;SDS011;34804;49.214;12.276;2022-12-18T08:18:42;36.00;;;12.97;;
48993;SDS011;34804;49.214;12.276;2022-12-18T08:23:36;34.37;;;11.93;;
48993;SDS011;34804;49.214;12.276;2022-12-18T08:26:09;30.33;;;11.55;;
48993;SDS011;34804;49.214;12.276;2022-12-18T08:28:37;31.13;;;12.63;;
48993;SDS011;34804;49.214;12.276;2022-12-18T08:31:04;39.93;;;13.27;;
48993;SDS011;34804;49.214;12.276;2022-12-18T08:33:31;38.27;;;13.67;;
48993;SDS011;34804;49.214;12.276;2022-12-18T08:35:59;36.63;;;12.33;;
48993;SDS011;34804;49.214;12.276;2022-12-18T08:38:27;36.03;;;13.40;;
48993;SDS011;34804;49.214;12.276;2022-12-18T08:41:07;32.53;;;12.37;;
48993;SDS011;34804;49.214;12.276;2022-12-18T08:43:36;33.53;;;12.30;;
48993;SDS011;34804;49.214;12.276;2022-12-18T08:46:22;32.73;;;12.33;;
48993;SDS011;34804;49.214;12.276;2022-12-18T08:48:51;35.43;;;13.87;;
48993;SDS011;34804;49.214;12.276;2022-12-18T08:51:19;34.40;;;12.03;;
48993;SDS011;34804;49.214;12.276;2022-12-18T08:53:46;38.47;;;13.57;;
48993;SDS011;34804;49.214;12.276;2022-12-18T08:56:13;32.67;;;11.57;;
48993;SDS011;34804;49.214;12.276;2022-12-18T08:58:40;34.27;;;12.87;;
48993;SDS011;34804;49.214;12.276;2022-12-18T09:01:08;31.57;;;11.40;;
48993;SDS011;34804;49.214;12.276;2022-12-18T09:03:36;32.17;;;11.70;;
48993;SDS011;34804;49.214;12.276;2022-12-18T09:06:04;31.37;;;12.63;;
48993;SDS011;34804;49.214;12.276;2022-12-18T09:08:31;32.30;;;12.63;;
48993;SDS011;34804;49.214;12.276;2022-12-18T09:11:01;33.33;;;12.97;;
48993;SDS011;34804;49.214;12.276;2022-12-18T09:13:28;32.80;;;12.97;;
48993;SDS011;34804;49.214;12.276;2022-12-18T09:15:55;34.93;;;12.77;;
48993;SDS011;34804;49.214;12.276;2022-12-18T09:18:23;32.27;;;12.03;;
48993;SDS011;34804;49.214;12.276;2022-12-18T09:20:50;34.43;;;12.60;;
48993;SDS011;34804;49.214;12.276;2022-12-18T09:23:19;33.10;;;12.53;;
48993;SDS011;34804;49.214;12.276;2022-12-18T09:25:47;33.83;;;12.17;;
48993;SDS011;34804;49.214;12.276;2022-12-18T09:28:15;30.57;;;11.87;;
48993;SDS011;34804;49.214;12.276;2022-12-18T09:30:44;26.47;;;11.53;;
48993;SDS011;34804;49.214;12.276;2022-12-18T09:33:13;32.43;;;11.87;;
48993;SDS011;34804;49.214;12.276;2022-12-18T09:35:40;28.83;;;12.23;;
48993;SDS011;34804;49.214;12.276;2022-12-18T09:38:11;28.63;;;12.17;;
48993;SDS011;34804;49.214;12.276;2022-12-18T09:40:41;30.50;;;11.57;;
48993;SDS011;34804;49.214;12.276;2022-12-18T09:43:18;29.67;;;10.77;;
48993;SDS011;34804;49.214;12.276;2022-12-18T09:45:47;31.10;;;11.50;;
48993;SDS011;34804;49.214;12.276;2022-12-18T09:48:20;30.17;;;11.40;;
48993;SDS011;34804;49.214;12.276;2022-12-18T09:50:51;31.70;;;11.57;;
48993;SDS011;34804;49.214;12.276;2022-12-18T09:53:26;27.90;;;10.83;;
48993;SDS011;34804;49.214;12.276;2022-12-18T09:55:56;24.10;;;10.30;;
48993;SDS011;34804;49.214;12.276;2022-12-18T10:00:59;30.83;;;11.77;;
48993;SDS011;34804;49.214;12.276;2022-12-18T10:03:26;28.17;;;11.20;;
48993;SDS011;34804;49.214;12.276;2022-12-18T10:08:46;36.83;;;12.57;;
48993;SDS011;34804;49.214;12.276;2022-12-18T10:19:10;25.80;;;10.63;;
48993;SDS011;34804;49.214;12.276;2022-12-18T10:24:59;26.30;;;11.43;;
48993;SDS011;34804;49.214;12.276;2022-12-18T10:27:28;30.40;;;11.70;;
48993;SDS011;34804;49.214;12.276;2022-12-18T10:29:56;31.17;;;13.77;;
48993;SDS011;34804;49.214;12.276;2022-12-18T10:32:27;32.90;;;13.13;;
48993;SDS011;34804;49.214;12.276;2022-12-18T10:34:56;38.58;;;14.35;;
48993;SDS011;34804;49.214;12.276;2022-12-18T10:37:28;30.77;;;12.63;;
48993;SDS011;34804;49.214;12.276;2022-12-18T10:40:09;33.67;;;12.27;;
48993;SDS011;34804;49.214;12.276;2022-12-18T10:42:47;28.70;;;11.80;;
48993;SDS011;34804;49.214;12.276;2022-12-18T10:47:59;31.77;;;12.40;;
48993;SDS011;34804;49.214;12.276;2022-12-18T10:50:34;32.40;;;11.77;;
48993;SDS011;34804;49.214;12.276;2022-12-18T10:53:24;26.17;;;11.20;;
48993;SDS011;34804;49.214;12.276;2022-12-18T10:55:54;27.77;;;12.07;;
48993;SDS011;34804;49.214;12.276;2022-12-18T11:01:14;26.73;;;11.43;;
48993;SDS011;34804;49.214;12.276;2022-12-18T11:03:44;29.57;;;12.40;;
48993;SDS011;34804;49.214;12.276;2022-12-18T11:06:14;28.97;;;11.90;;
48993;SDS011;34804;49.214;12.276;2022-12-18T11:08:43;27.42;;;11.15;;
48993;SDS011;34804;49.214;12.276;2022-12-18T11:11:23;27.83;;;11.70;;
48993;SDS011;34804;49.214;12.276;2022-12-18T11:14:04;27.00;;;11.95;;
48993;SDS011;34804;49.214;12.276;2022-12-18T11:16:46;26.55;;;11.25;;
48993;SDS011;34804;49.214;12.276;2022-12-18T11:19:37;26.85;;;11.45;;
48993;SDS011;34804;49.214;12.276;2022-12-18T11:28:05;23.63;;;10.68;;
48993;SDS011;34804;49.214;12.276;2022-12-18T11:33:49;24.80;;;9.85;;
48993;SDS011;34804;49.214;12.276;2022-12-18T11:36:48;26.50;;;10.15;;
48993;SDS011;34804;49.214;12.276;2022-12-18T11:39:17;20.73;;;9.57;;
48993;SDS011;34804;49.214;12.276;2022-12-18T11:42:01;19.73;;;9.20;;
48993;SDS011;34804;49.214;12.276;2022-12-18T11:44:58;20.10;;;9.60;;
48993;SDS011;34804;49.214;12.276;2022-12-18T11:48:18;22.83;;;9.38;;
48993;SDS011;34804;49.214;12.276;2022-12-18T11:50:30;19.38;;;8.50;;
48993;SDS011;34804;49.214;12.276;2022-12-18T11:53:08;21.65;;;9.13;;
48993;SDS011;34804;49.214;12.276;2022-12-18T11:55:41;21.75;;;10.30;;
48993;SDS011;34804;49.214;12.276;2022-12-18T11:58:23;20.50;;;9.13;;
48993;SDS011;34804;49.214;12.276;2022-12-18T12:06:45;23.33;;;9.65;;
48993;SDS011;34804;49.214;12.276;2022-12-18T12:09:24;21.63;;;9.95;;
48993;SDS011;34804;49.214;12.276;2022-12-18T12:17:42;20.52;;;9.68;;
48993;SDS011;34804;49.214;12.276;2022-12-18T12:20:16;23.05;;;9.27;;
48993;SDS011;34804;49.214;12.276;2022-12-18T12:23:13;18.13;;;9.57;;
48993;SDS011;34804;49.214;12.276;2022-12-18T12:26:08;19.75;;;9.18;;
48993;SDS011;34804;49.214;12.276;2022-12-18T12:28:50;19.35;;;9.57;;
48993;SDS011;34804;49.214;12.276;2022-12-18T12:35:22;20.92;;;9.95;;
48993;SDS011;34804;49.214;12.276;2022-12-18T12:37:42;17.43;;;8.47;;
48993;SDS011;34804;49.214;12.276;2022-12-18T12:40:17;16.88;;;9.63;;
48993;SDS011;34804;49.214;12.276;2022-12-18T12:46:11;16.75;;;7.70;;
48993;SDS011;34804;49.214;12.276;2022-12-18T12:51:23;17.60;;;7.93;;
48993;SDS011;34804;49.214;12.276;2022-12-18T12:53:52;15.13;;;7.45;;
48993;SDS011;34804;49.214;12.276;2022-12-18T12:56:22;19.88;;;8.85;;
48993;SDS011;34804;49.214;12.276;2022-12-18T12:58:56;17.45;;;9.18;;
48993;SDS011;34804;49.214;12.276;2022-12-18T13:06:50;16.83;;;8.13;;
48993;SDS011;34804;49.214;12.276;2022-12-18T13:09:29;16.98;;;8.32;;
48993;SDS011;34804;49.214;12.276;2022-12-18T13:12:03;16.63;;;8.00;;
48993;SDS011;34804;49.214;12.276;2022-12-18T13:15:13;21.88;;;9.20;;
48993;SDS011;34804;49.214;12.276;2022-12-18T13:17:48;15.60;;;8.23;;
48993;SDS011;34804;49.214;12.276;2022-12-18T13:20:16;18.48;;;9.60;;
48993;SDS011;34804;49.214;12.276;2022-12-18T13:22:44;15.35;;;7.97;;
48993;SDS011;34804;49.214;12.276;2022-12-18T13:38:24;15.75;;;7.88;;
48993;SDS011;34804;49.214;12.276;2022-12-18T13:43:49;15.98;;;6.95;;
48993;SDS011;34804;49.214;12.276;2022-12-18T13:46:29;15.52;;;7.13;;
48993;SDS011;34804;49.214;12.276;2022-12-18T13:51:50;16.02;;;7.20;;
48993;SDS011;34804;49.214;12.276;2022-12-18T13:56:48;15.88;;;6.47;;
48993;SDS011;34804;49.214;12.276;2022-12-18T14:04:32;15.20;;;7.25;;
48993;SDS011;34804;49.214;12.276;2022-12-18T14:07:05;18.52;;;7.35;;
48993;SDS011;34804;49.214;12.276;2022-12-18T14:09:43;18.67;;;8.43;;
48993;SDS011;34804;49.214;12.276;2022-12-18T14:12:16;18.30;;;7.97;;
48993;SDS011;34804;49.214;12.276;2022-12-18T14:15:27;16.55;;;7.32;;
48993;SDS011;34804;49.214;12.276;2022-12-18T14:20:49;18.40;;;8.25;;
48993;SDS011;34804;49.214;12.276;2022-12-18T14:23:35;16.65;;;7.53;;
48993;SDS011;34804;49.214;12.276;2022-12-18T14:26:27;21.20;;;7.70;;
48993;SDS011;34804;49.214;12.276;2022-12-18T14:28:56;19.60;;;7.75;;
48993;SDS011;34804;49.214;12.276;2022-12-18T14:31:25;17.45;;;7.50;;
48993;SDS011;34804;49.214;12.276;2022-12-18T14:33:54;16.35;;;7.47;;
48993;SDS011;34804;49.214;12.276;2022-12-18T14:36:22;20.20;;;7.73;;
48993;SDS011;34804;49.214;12.276;2022-12-18T14:38:51;21.33;;;8.50;;
48993;SDS011;34804;49.214;12.276;2022-12-18T14:41:23;20.83;;;8.40;;
48993;SDS011;34804;49.214;12.276;2022-12-18T14:43:52;20.97;;;9.27;;
48993;SDS011;34804;49.214;12.276;2022-12-18T14:49:48;22.13;;;8.90;;
48993;SDS011;34804;49.214;12.276;2022-12-18T14:52:01;21.60;;;9.10;;
48993;SDS011;34804;49.214;12.276;2022-12-18T14:54:34;22.47;;;9.00;;
48993;SDS011;34804;49.214;12.276;2022-12-18T14:57:22;25.03;;;10.90;;
48993;SDS011;34804;49.214;12.276;2022-12-18T14:59:51;23.07;;;10.53;;
48993;SDS011;34804;49.214;12.276;2022-12-18T15:02:21;23.50;;;10.97;;
48993;SDS011;34804;49.214;12.276;2022-12-18T15:07:26;23.60;;;10.53;;
48993;SDS011;34804;49.214;12.276;2022-12-18T15:10:01;26.60;;;11.87;;
48993;SDS011;34804;49.214;12.276;2022-12-18T15:12:36;26.97;;;11.67;;
48993;SDS011;34804;49.214;12.276;2022-12-18T15:17:59;48.63;;;16.40;;
48993;SDS011;34804;49.214;12.276;2022-12-18T15:20:28;33.10;;;11.97;;
48993;SDS011;34804;49.214;12.276;2022-12-18T15:22:58;64.33;;;19.77;;
48993;SDS011;34804;49.214;12.276;2022-12-18T15:25:35;80.43;;;25.07;;
48993;SDS011;34804;49.214;12.276;2022-12-18T15:28:04;62.60;;;19.00;;
48993;SDS011;34804;49.214;12.276;2022-12-18T15:31:02;34.40;;;13.07;;
48993;SDS011;34804;49.214;12.276;2022-12-18T15:33:31;30.63;;;11.87;;
48993;SDS011;34804;49.214;12.276;2022-12-18T15:36:01;29.93;;;12.40;;
48993;SDS011;34804;49.214;12.276;2022-12-18T15:38:35;28.83;;;12.30;;
48993;SDS011;34804;49.214;12.276;2022-12-18T15:41:02;33.57;;;13.50;;
48993;SDS011;34804;49.214;12.276;2022-12-18T15:43:29;30.17;;;13.80;;
48993;SDS011;34804;49.214;12.276;2022-12-18T15:46:13;30.87;;;14.13;;
48993;SDS011;34804;49.214;12.276;2022-12-18T15:48:46;39.40;;;15.37;;
48993;SDS011;34804;49.214;12.276;2022-12-18T15:51:15;38.03;;;14.70;;
48993;SDS011;34804;49.214;12.276;2022-12-18T15:53:47;36.00;;;15.60;;
48993;SDS011;34804;49.214;12.276;2022-12-18T15:56:16;35.90;;;15.83;;
48993;SDS011;34804;49.214;12.276;2022-12-18T15:59:02;37.60;;;14.90;;
48993;SDS011;34804;49.214;12.276;2022-12-18T16:01:31;39.13;;;16.03;;
48993;SDS011;34804;49.214;12.276;2022-12-18T16:03:58;41.63;;;14.60;;
48993;SDS011;34804;49.214;12.276;2022-12-18T16:06:25;44.83;;;16.90;;
48993;SDS011;34804;49.214;12.276;2022-12-18T16:09:01;35.43;;;15.80;;
48993;SDS011;34804;49.214;12.276;2022-12-18T16:11:29;39.57;;;14.33;;
48993;SDS011;34804;49.214;12.276;2022-12-18T16:16:55;40.00;;;15.97;;
48993;SDS011;34804;49.214;12.276;2022-12-18T16:19:26;40.13;;;15.70;;
48993;SDS011;34804;49.214;12.276;2022-12-18T16:21:55;42.67;;;16.73;;
48993;SDS011;34804;49.214;12.276;2022-12-18T16:24:23;38.23;;;13.90;;
48993;SDS011;34804;49.214;12.276;2022-12-18T16:26:52;38.37;;;16.00;;
48993;SDS011;34804;49.214;12.276;2022-12-18T16:29:20;45.57;;;17.73;;
48993;SDS011;34804;49.214;12.276;2022-12-18T16:31:53;45.90;;;16.60;;
48993;SDS011;34804;49.214;12.276;2022-12-18T16:34:22;39.97;;;16.13;;
48993;SDS011;34804;49.214;12.276;2022-12-18T16:36:58;39.87;;;16.23;;
48993;SDS011;34804;49.214;12.276;2022-12-18T16:39:31;32.97;;;14.33;;
48993;SDS011;34804;49.214;12.276;2022-12-18T16:42:00;43.80;;;16.80;;
48993;SDS011;34804;49.214;12.276;2022-12-18T16:44:32;45.47;;;16.47;;